createdAt,value
2017-05-19T00:02:15.562Z,100285.01
2017-05-19T00:04:43.364Z,100291.61
2017-05-19T00:07:10.902Z,100304.69
2017-05-19T00:09:38.415Z,100306.78
2017-05-19T00:12:05.954Z,100316.17
2017-05-19T00:14:33.479Z,100316.42
2017-05-19T00:17:01.043Z,100329.42
2017-05-19T00:19:28.560Z,100328.30
2017-05-19T00:21:56.103Z,100339.46
2017-05-19T00:24:23.640Z,100339.84
2017-05-19T00:26:51.164Z,100336.92
2017-05-19T00:29:18.711Z,100339.22
2017-05-19T00:31:46.225Z,100341.94
2017-05-19T00:34:13.765Z,100349.81
2017-05-19T00:36:41.279Z,100336.67
2017-05-19T00:39:09.086Z,100338.52
2017-05-19T00:41:36.601Z,100336.75
2017-05-19T00:44:04.100Z,100334.21
2017-05-19T00:46:31.666Z,100326.62
2017-05-19T00:48:59.211Z,100327.41
2017-05-19T00:51:26.767Z,100334.66
2017-05-19T00:53:54.384Z,100330.69
2017-05-19T00:56:21.901Z,100328.03
2017-05-19T00:58:49.527Z,100326.38
2017-05-19T01:01:17.109Z,100317.53
2017-05-19T01:03:44.727Z,100321.60
2017-05-19T01:06:12.300Z,100317.36
2017-05-19T01:08:39.806Z,100337.61
2017-05-19T01:11:07.455Z,100340.48
2017-05-19T01:13:35.049Z,100347.34
2017-05-19T01:16:02.611Z,100342.09
2017-05-19T01:18:30.122Z,100339.67
2017-05-19T01:20:57.621Z,100336.34
2017-05-19T01:23:25.167Z,100361.06
2017-05-19T01:25:52.676Z,100367.83
2017-05-19T01:28:20.300Z,100365.61
2017-05-19T01:30:47.819Z,100352.61
2017-05-19T01:33:15.627Z,100339.85
2017-05-19T01:35:43.126Z,100323.09
2017-05-19T01:38:10.636Z,100302.38
2017-05-19T01:40:38.236Z,100297.44
2017-05-19T01:43:05.755Z,100303.59
2017-05-19T01:45:33.629Z,100315.95
2017-05-19T01:48:01.142Z,100323.17
2017-05-19T01:50:28.688Z,100331.16
2017-05-19T01:52:56.235Z,100332.44
2017-05-19T01:55:23.740Z,100335.63
2017-05-19T01:57:51.551Z,100340.23
2017-05-19T02:00:19.124Z,100339.94
2017-05-19T02:02:46.644Z,100342.95
2017-05-19T02:05:14.191Z,100336.25
2017-05-19T02:07:42.088Z,100336.73
2017-05-19T02:10:09.611Z,100341.84
2017-05-19T02:12:37.119Z,100334.98
2017-05-19T02:15:04.680Z,100327.97
2017-05-19T02:17:32.202Z,100324.77
2017-05-19T02:19:59.703Z,100333.08
2017-05-19T02:22:27.607Z,100342.48
2017-05-19T02:24:55.134Z,100329.88
2017-05-19T02:27:22.656Z,100333.80
2017-05-19T02:29:50.187Z,100327.58
2017-05-19T02:32:17.715Z,100331.64
2017-05-19T02:34:45.286Z,100334.77
2017-05-19T02:37:12.801Z,100333.00
2017-05-19T02:39:40.313Z,100338.98
2017-05-19T02:42:07.850Z,100336.91
2017-05-19T02:44:35.363Z,100340.72
2017-05-19T02:47:02.915Z,100341.75
2017-05-19T02:49:30.415Z,100337.84
2017-05-19T02:51:57.976Z,100343.84
2017-05-19T02:54:25.479Z,100336.20
2017-05-19T02:56:53.015Z,100346.86
2017-05-19T02:59:20.743Z,100350.79
2017-05-19T03:01:48.275Z,100343.28
2017-05-19T03:04:15.802Z,100344.39
2017-05-19T03:06:43.347Z,100344.17
2017-05-19T03:09:10.957Z,100344.09
2017-05-19T03:11:38.515Z,100350.22
2017-05-19T03:14:06.057Z,100347.42
2017-05-19T03:16:33.627Z,100338.52
2017-05-19T03:19:01.154Z,100333.38
2017-05-19T03:21:28.680Z,100341.54
2017-05-19T03:23:56.240Z,100350.38
2017-05-19T03:26:23.747Z,100352.28
2017-05-19T03:28:51.319Z,100351.73
2017-05-19T03:31:18.879Z,100346.95
2017-05-19T03:33:46.403Z,100358.04
2017-05-19T03:36:13.913Z,100339.84
2017-05-19T03:38:41.460Z,100344.48
2017-05-19T03:41:08.971Z,100348.53
2017-05-19T03:43:36.544Z,100354.53
2017-05-19T03:46:04.066Z,100350.20
2017-05-19T03:48:31.583Z,100352.53
2017-05-19T03:50:59.115Z,100351.48
2017-05-19T03:53:26.633Z,100358.20
2017-05-19T03:55:54.508Z,100358.64
2017-05-19T03:58:22.043Z,100360.34
2017-05-19T04:00:49.524Z,100350.45
2017-05-19T04:03:17.062Z,100353.80
2017-05-19T04:05:44.570Z,100367.90
2017-05-19T04:08:12.125Z,100361.60
2017-05-19T04:10:39.651Z,100363.12
2017-05-19T04:13:07.528Z,100371.73
2017-05-19T04:15:35.047Z,100376.73
2017-05-19T04:18:02.572Z,100372.92
2017-05-19T04:20:30.249Z,100370.13
2017-05-19T04:22:57.803Z,100372.03
2017-05-19T04:25:25.360Z,100378.02
2017-05-19T04:27:52.888Z,100377.97
2017-05-19T04:30:20.441Z,100372.53
2017-05-19T04:32:47.955Z,100382.48
2017-05-19T04:35:15.828Z,100381.45
2017-05-19T04:37:43.342Z,100381.93
2017-05-19T04:40:10.875Z,100397.94
2017-05-19T04:42:38.435Z,100401.94
2017-05-19T04:45:06.005Z,100398.67
2017-05-19T04:47:33.568Z,100395.80
2017-05-19T04:50:01.203Z,100393.25
2017-05-19T04:52:28.711Z,100389.66
2017-05-19T04:54:56.246Z,100393.52
2017-05-19T04:57:23.756Z,100392.86
2017-05-19T04:59:51.292Z,100397.09
2017-05-19T05:02:18.843Z,100403.63
2017-05-19T05:04:46.723Z,100407.42
2017-05-19T05:07:14.240Z,100429.33
2017-05-19T05:09:41.803Z,100435.50
2017-05-19T05:12:09.402Z,100435.81
2017-05-19T05:14:37.003Z,100442.42
2017-05-19T05:17:04.609Z,100445.11
2017-05-19T05:19:32.142Z,100449.15
2017-05-19T05:21:59.723Z,100458.32
2017-05-19T05:24:27.360Z,100464.25
2017-05-19T05:26:54.886Z,100466.54
2017-05-19T05:29:22.559Z,100475.69
2017-05-19T05:31:50.131Z,100486.94
2017-05-19T05:34:17.691Z,100493.38
2017-05-19T05:36:45.219Z,100512.05
2017-05-19T05:39:12.764Z,100512.51
2017-05-19T05:41:40.320Z,100523.22
2017-05-19T05:44:07.844Z,100530.29
2017-05-19T05:46:35.463Z,100529.02
2017-05-19T05:49:02.984Z,100523.38
2017-05-19T05:51:30.512Z,100527.42
2017-05-19T05:53:58.075Z,100529.04
2017-05-19T05:56:25.635Z,100540.94
2017-05-19T05:58:53.534Z,100538.63
2017-05-19T06:01:21.085Z,100542.63
2017-05-19T06:03:48.629Z,100534.77
2017-05-19T06:06:16.204Z,100536.94
2017-05-19T06:08:43.728Z,100546.27
2017-05-19T06:11:11.298Z,100550.13
2017-05-19T06:13:38.823Z,100557.92
2017-05-19T06:16:06.686Z,100558.33
2017-05-19T06:18:34.218Z,100566.94
2017-05-19T06:21:01.747Z,100578.19
2017-05-19T06:23:29.317Z,100573.63
2017-05-19T06:25:57.533Z,100582.78
2017-05-19T06:28:25.083Z,100594.56
2017-05-19T06:30:52.595Z,100592.91
2017-05-19T06:33:20.151Z,100597.34
2017-05-19T06:35:47.703Z,100595.61
2017-05-19T06:38:15.220Z,100596.66
2017-05-19T06:40:42.807Z,100599.78
2017-05-19T06:43:10.341Z,100600.66
2017-05-19T06:45:37.855Z,100608.25
2017-05-19T06:48:05.747Z,100613.39
2017-05-19T06:50:33.275Z,100619.27
2017-05-19T06:53:00.815Z,100612.23
2017-05-19T06:55:28.413Z,100625.73
2017-05-19T06:57:55.956Z,100635.77
2017-05-19T07:00:23.952Z,100632.88
2017-05-19T07:02:51.487Z,100628.89
2017-05-19T07:05:19.017Z,100629.31
2017-05-19T07:07:46.621Z,100631.30
2017-05-19T07:10:14.232Z,100628.91
2017-05-19T07:12:42.098Z,100637.41
2017-05-19T07:15:09.622Z,100634.42
2017-05-19T07:17:37.152Z,100635.38
2017-05-19T07:20:04.720Z,100651.33
2017-05-19T07:22:32.287Z,100645.93
2017-05-19T07:24:59.849Z,100648.35
2017-05-19T07:27:27.383Z,100647.27
2017-05-19T07:29:54.988Z,100653.64
2017-05-19T07:32:22.527Z,100647.02
2017-05-19T07:34:50.419Z,100651.77
2017-05-19T07:37:17.943Z,100648.13
2017-05-19T07:39:45.479Z,100656.11
2017-05-19T07:42:13.028Z,100655.23
2017-05-19T07:44:40.554Z,100653.51
2017-05-19T07:47:08.381Z,100656.29
2017-05-19T07:49:35.920Z,100649.48
2017-05-19T07:52:03.523Z,100644.97
2017-05-19T07:54:31.088Z,100647.06
2017-05-19T07:56:58.617Z,100645.14
2017-05-19T07:59:26.204Z,100642.97
2017-05-19T08:01:53.745Z,100639.84
2017-05-19T08:04:21.276Z,100644.77
2017-05-19T08:06:48.881Z,100643.63
2017-05-19T08:09:16.481Z,100640.14
2017-05-19T08:11:44.092Z,100641.66
2017-05-19T08:14:11.605Z,100643.26
2017-05-19T08:16:39.430Z,100644.37
2017-05-19T08:19:06.939Z,100645.30
2017-05-19T08:21:34.447Z,100650.28
2017-05-19T08:24:01.999Z,100656.41
2017-05-19T08:26:29.532Z,100654.12
2017-05-19T08:28:57.115Z,100653.87
2017-05-19T08:31:24.632Z,100658.45
2017-05-19T08:33:52.171Z,100651.75
2017-05-19T08:36:19.770Z,100655.66
2017-05-19T08:38:47.287Z,100662.69
2017-05-19T08:41:15.113Z,100653.44
2017-05-19T08:43:42.623Z,100655.38
2017-05-19T08:46:10.173Z,100653.84
2017-05-19T08:48:37.731Z,100646.66
2017-05-19T08:51:05.312Z,100655.27
2017-05-19T08:53:32.888Z,100652.20
2017-05-19T08:56:00.451Z,100656.50
2017-05-19T08:58:28.266Z,100659.54
2017-05-19T09:00:55.797Z,100664.13
2017-05-19T09:03:23.317Z,100662.95
2017-05-19T09:05:50.887Z,100665.34
2017-05-19T09:08:18.397Z,100664.27
2017-05-19T09:10:46.233Z,100669.17
2017-05-19T09:13:13.752Z,100672.13
2017-05-19T09:15:41.270Z,100671.00
2017-05-19T09:18:08.867Z,100670.50
2017-05-19T09:20:36.384Z,100674.02
2017-05-19T09:23:04.279Z,100671.75
2017-05-19T09:25:31.840Z,100680.80
2017-05-19T09:27:59.364Z,100673.95
2017-05-19T09:30:26.985Z,100681.45
2017-05-19T09:32:54.508Z,100688.53
2017-05-19T09:35:22.071Z,100685.17
2017-05-19T09:37:49.599Z,100686.86
2017-05-19T09:40:17.195Z,100686.22
2017-05-19T09:42:44.729Z,100675.59
2017-05-19T09:45:12.275Z,100676.02
2017-05-19T09:47:39.828Z,100677.77
2017-05-19T09:50:07.330Z,100678.70
2017-05-19T09:52:34.903Z,100674.03
2017-05-19T09:55:02.427Z,100671.19
2017-05-19T09:57:29.966Z,100674.19
2017-05-19T09:59:57.559Z,100674.77
2017-05-19T10:02:25.093Z,100671.56
2017-05-19T10:04:52.623Z,100678.10
2017-05-19T10:07:20.171Z,100673.30
2017-05-19T10:09:47.686Z,100680.30
2017-05-19T10:12:15.256Z,100678.55
2017-05-19T10:14:42.784Z,100687.31
2017-05-19T10:17:10.294Z,100686.15
2017-05-19T10:19:37.857Z,100679.98
2017-05-19T10:22:05.375Z,100693.50
2017-05-19T10:24:32.954Z,100697.70
2017-05-19T10:27:00.476Z,100699.53
2017-05-19T10:29:28.311Z,100697.15
2017-05-19T10:31:55.820Z,100699.71
2017-05-19T10:34:23.354Z,100705.05
2017-05-19T10:36:50.927Z,100701.33
2017-05-19T10:39:18.439Z,100704.32
2017-05-19T10:41:45.988Z,100701.21
2017-05-19T10:44:13.500Z,100706.41
2017-05-19T10:46:41.072Z,100701.80
2017-05-19T10:49:08.588Z,100703.77
2017-05-19T10:51:36.099Z,100706.66
2017-05-19T10:54:03.636Z,100705.29
2017-05-19T10:56:31.199Z,100705.88
2017-05-19T10:58:58.791Z,100715.52
2017-05-19T11:01:26.312Z,100713.73
2017-05-19T11:03:53.858Z,100722.02
2017-05-19T11:06:21.435Z,100726.13
2017-05-19T11:08:49.291Z,100728.02
2017-05-19T11:11:16.848Z,100731.55
2017-05-19T11:13:44.360Z,100731.47
2017-05-19T11:16:11.897Z,100734.21
2017-05-19T11:18:39.439Z,100734.50
2017-05-19T11:21:07.024Z,100739.43
2017-05-19T11:23:34.564Z,100732.89
2017-05-19T11:26:02.132Z,100727.95
2017-05-19T11:28:29.676Z,100737.78
2017-05-19T11:30:57.222Z,100734.14
2017-05-19T11:33:24.764Z,100743.94
2017-05-19T11:35:52.272Z,100750.44
2017-05-19T11:38:19.881Z,100747.89
2017-05-19T11:40:47.453Z,100745.09
2017-05-19T11:43:15.005Z,100749.55
2017-05-19T11:45:42.520Z,100753.47
2017-05-19T11:48:10.062Z,100749.27
2017-05-19T11:50:37.586Z,100749.26
2017-05-19T11:53:05.165Z,100743.92
2017-05-19T11:55:32.694Z,100740.75
2017-05-19T11:58:00.221Z,100739.08
2017-05-19T12:00:27.803Z,100738.34
2017-05-19T12:02:55.335Z,100729.70
2017-05-19T12:05:22.919Z,100748.79
2017-05-19T12:07:50.459Z,100752.50
2017-05-19T12:10:18.287Z,100752.05
2017-05-19T12:12:45.812Z,100750.77
2017-05-19T12:15:13.334Z,100750.26
2017-05-19T12:17:40.881Z,100767.34
2017-05-19T12:20:08.411Z,100770.55
2017-05-19T12:22:36.249Z,100768.45
2017-05-19T12:25:03.779Z,100761.48
2017-05-19T12:27:31.302Z,100774.32
2017-05-19T12:29:58.907Z,100770.64
2017-05-19T12:32:26.419Z,100770.28
2017-05-19T12:34:53.931Z,100768.11
2017-05-19T12:37:21.492Z,100770.73
2017-05-19T12:39:48.991Z,100772.72
2017-05-19T12:42:16.515Z,100771.59
2017-05-19T12:44:44.328Z,100771.72
2017-05-19T12:47:11.863Z,100774.38
2017-05-19T12:49:39.384Z,100775.58
2017-05-19T12:52:07.258Z,100778.09
2017-05-19T12:54:34.781Z,100782.59
2017-05-19T12:57:02.319Z,100789.33
2017-05-19T12:59:29.884Z,100788.41
2017-05-19T13:01:57.411Z,100795.49
2017-05-19T13:04:24.920Z,100800.81
2017-05-19T13:06:52.731Z,100802.83
2017-05-19T13:09:20.268Z,100802.22
2017-05-19T13:11:47.770Z,100800.02
2017-05-19T13:14:15.583Z,100799.73
2017-05-19T13:16:43.113Z,100799.16
2017-05-19T13:19:10.639Z,100801.91
2017-05-19T13:21:38.215Z,100799.14
2017-05-19T13:24:05.730Z,100798.65
2017-05-19T13:26:33.254Z,100800.16
2017-05-19T13:29:00.813Z,100803.39
2017-05-19T13:31:28.337Z,100801.02
2017-05-19T13:33:56.194Z,100805.68
2017-05-19T13:36:23.728Z,100807.68
2017-05-19T13:38:51.243Z,100820.00
2017-05-19T13:41:19.155Z,100820.95
2017-05-19T13:43:46.693Z,100827.88
2017-05-19T13:46:14.268Z,100832.86
2017-05-19T13:48:42.188Z,100832.15
2017-05-19T13:51:09.701Z,100839.61
2017-05-19T13:53:37.249Z,100843.13
2017-05-19T13:56:05.159Z,100843.80
2017-05-19T13:58:32.756Z,100846.48
2017-05-19T14:01:00.312Z,100845.42
2017-05-19T14:03:27.963Z,100848.38
2017-05-19T14:05:55.481Z,100843.28
2017-05-19T14:08:22.998Z,100847.42
2017-05-19T14:10:50.548Z,100852.94
2017-05-19T14:13:18.075Z,100856.25
2017-05-19T14:15:45.595Z,100860.94
2017-05-19T14:18:13.281Z,100860.25
2017-05-19T14:20:40.829Z,100863.85
2017-05-19T14:23:08.380Z,100863.36
2017-05-19T14:25:35.960Z,100861.34
2017-05-19T14:28:03.472Z,100858.56
2017-05-19T14:30:30.995Z,100855.65
2017-05-19T14:32:58.539Z,100854.00
2017-05-19T14:35:26.072Z,100859.12
2017-05-19T14:37:53.647Z,100859.89
2017-05-19T14:40:21.168Z,100869.70
2017-05-19T14:42:48.676Z,100877.18
2017-05-19T14:45:16.503Z,100875.16
2017-05-19T14:47:44.039Z,100869.97
2017-05-19T14:50:11.608Z,100864.99
2017-05-19T14:52:39.223Z,100867.52
2017-05-19T14:55:06.738Z,100866.02
2017-05-19T14:57:34.302Z,100867.75
2017-05-19T15:00:01.899Z,100864.98
2017-05-19T15:02:29.424Z,100858.75
2017-05-19T15:04:56.953Z,100858.13
2017-05-19T15:07:24.513Z,100864.55
2017-05-19T15:09:52.047Z,100860.09
2017-05-19T15:12:19.622Z,100855.44
2017-05-19T15:14:47.143Z,100857.06
2017-05-19T15:17:14.669Z,100865.44
2017-05-19T15:19:42.299Z,100866.39
2017-05-19T15:22:09.837Z,100863.99
2017-05-19T15:24:37.367Z,100872.06
2017-05-19T15:27:05.323Z,100865.59
2017-05-19T15:29:32.871Z,100867.95
2017-05-19T15:32:00.420Z,100872.21
2017-05-19T15:34:27.995Z,100872.55
2017-05-19T15:36:55.544Z,100886.41
2017-05-19T15:39:23.077Z,100886.14
2017-05-19T15:41:50.942Z,100879.12
2017-05-19T15:44:18.468Z,100870.83
2017-05-19T15:46:45.988Z,100874.45
2017-05-19T15:49:13.552Z,100890.52
2017-05-19T15:51:41.069Z,100884.83
2017-05-19T15:54:08.660Z,100884.44
2017-05-19T15:56:36.195Z,100891.05
2017-05-19T15:59:03.751Z,100887.36
2017-05-19T16:01:31.657Z,100895.45
2017-05-19T16:03:59.174Z,100903.08
2017-05-19T16:06:26.676Z,100903.83
2017-05-19T16:08:54.219Z,100905.77
2017-05-19T16:11:21.756Z,100909.82
2017-05-19T16:13:49.661Z,100908.86
2017-05-19T16:16:17.204Z,100913.19
2017-05-19T16:18:44.756Z,100918.90
2017-05-19T16:21:12.803Z,100917.11
2017-05-19T16:23:40.340Z,100920.38
2017-05-19T16:26:07.885Z,100925.92
2017-05-19T16:28:35.474Z,100922.52
2017-05-19T16:31:03.044Z,100923.81
2017-05-19T16:33:30.572Z,100924.75
2017-05-19T16:35:58.484Z,100923.36
2017-05-19T16:38:26.015Z,100930.34
2017-05-19T16:40:53.558Z,100933.31
2017-05-19T16:43:21.457Z,100935.69
2017-05-19T16:45:49.007Z,100928.80
2017-05-19T16:48:16.632Z,100928.02
2017-05-19T16:50:44.204Z,100930.98
2017-05-19T16:53:11.735Z,100927.83
2017-05-19T16:55:39.262Z,100930.57
2017-05-19T16:58:06.849Z,100937.12
2017-05-19T17:00:34.369Z,100928.22
2017-05-19T17:03:02.240Z,100934.05
2017-05-19T17:05:29.795Z,100925.25
2017-05-19T17:07:57.333Z,100916.39
2017-05-19T17:10:25.385Z,100912.63
2017-05-19T17:12:53.048Z,100907.94
2017-05-19T17:15:20.574Z,100910.38
2017-05-19T17:17:48.431Z,100904.73
2017-05-19T17:20:53.849Z,100917.09
2017-05-19T17:23:21.837Z,100921.80
2017-05-19T17:25:49.388Z,100920.41
2017-05-19T17:28:16.984Z,100922.56
2017-05-19T17:30:44.595Z,100921.05
2017-05-19T17:33:12.137Z,100927.19
2017-05-19T17:35:39.738Z,100928.66
2017-05-19T17:38:07.299Z,100930.83
2017-05-19T17:40:34.873Z,100941.81
2017-05-19T17:43:02.424Z,100944.33
2017-05-19T17:45:30.023Z,100949.58
2017-05-19T17:47:57.560Z,100951.48
2017-05-19T17:50:25.095Z,100956.38
2017-05-19T17:52:52.709Z,100951.65
2017-05-19T17:55:20.264Z,100960.24
2017-05-19T17:57:47.925Z,100966.09
2017-05-19T18:00:15.467Z,100963.27
2017-05-19T18:02:44.032Z,100959.00
2017-05-19T18:05:11.569Z,100952.41
2017-05-19T18:07:39.216Z,100947.67
2017-05-19T18:10:06.748Z,100951.20
2017-05-19T18:12:34.325Z,100947.85
2017-05-19T18:15:01.922Z,100957.70
2017-05-19T18:17:29.464Z,100962.03
2017-05-19T18:19:57.042Z,100964.02
2017-05-19T18:22:24.584Z,100964.02
2017-05-19T18:24:52.469Z,100968.77
2017-05-19T18:27:20.019Z,100961.75
2017-05-19T18:29:47.669Z,100971.30
2017-05-19T18:32:15.758Z,100971.19
2017-05-19T18:34:43.317Z,100970.75
2017-05-19T18:37:10.878Z,100979.09
2017-05-19T18:39:38.453Z,100974.42
2017-05-19T18:42:06.021Z,100979.28
2017-05-19T18:44:33.576Z,100990.88
2017-05-19T18:47:01.148Z,101004.38
2017-05-19T18:49:28.724Z,101006.37
2017-05-19T18:51:56.319Z,101008.81
2017-05-19T18:54:23.876Z,101005.98
2017-05-19T18:56:51.464Z,101019.19
2017-05-19T18:59:19.059Z,101018.53
2017-05-19T19:01:46.591Z,101032.38
2017-05-19T19:04:14.127Z,101035.86
2017-05-19T19:06:42.040Z,101044.90
2017-05-19T19:09:09.593Z,101045.71
2017-05-19T19:11:37.169Z,101045.77
2017-05-19T19:14:04.761Z,101050.31
2017-05-19T19:16:32.327Z,101054.77
2017-05-19T19:18:59.860Z,101057.03
2017-05-19T19:21:27.852Z,101053.13
2017-05-19T19:23:55.428Z,101048.41
2017-05-19T19:26:22.947Z,101039.56
2017-05-19T19:28:50.512Z,101043.64
2017-05-19T19:31:18.083Z,101058.84
2017-05-19T19:33:45.630Z,101057.78
2017-05-19T19:36:13.275Z,101062.00
2017-05-19T19:38:40.857Z,101065.48
2017-05-19T19:41:08.444Z,101071.42
2017-05-19T19:43:36.018Z,101073.84
2017-05-19T19:46:03.564Z,101071.80
2017-05-19T19:48:31.180Z,101072.34
2017-05-19T19:50:58.768Z,101069.93
2017-05-19T19:53:26.355Z,101072.73
2017-05-19T19:55:53.924Z,101069.80
2017-05-19T19:58:21.459Z,101075.05
2017-05-19T20:00:49.042Z,101077.47
2017-05-19T20:03:16.557Z,101079.88
2017-05-19T20:05:44.160Z,101084.47
2017-05-19T20:08:11.735Z,101072.77
2017-05-19T20:10:39.329Z,101074.39
2017-05-19T20:13:06.883Z,101067.53
2017-05-19T20:15:34.420Z,101067.94
2017-05-19T20:18:02.035Z,101069.42
2017-05-19T20:20:29.591Z,101066.87
2017-05-19T20:22:57.128Z,101076.02
2017-05-19T20:25:24.699Z,101079.37
2017-05-19T20:27:52.242Z,101083.57
2017-05-19T20:30:19.812Z,101080.44
2017-05-19T20:32:47.372Z,101069.25
2017-05-19T20:35:15.063Z,101076.53
2017-05-19T20:37:42.614Z,101077.61
2017-05-19T20:40:10.158Z,101068.33
2017-05-19T20:42:37.749Z,101055.66
2017-05-19T20:45:05.300Z,101067.01
2017-05-19T20:47:32.972Z,101081.23
2017-05-19T20:50:00.617Z,101083.53
2017-05-19T20:52:28.236Z,101082.84
2017-05-19T20:54:55.797Z,101084.09
2017-05-19T20:57:23.332Z,101088.37
2017-05-19T20:59:51.177Z,101091.75
2017-05-19T21:02:18.728Z,101101.56
2017-05-19T21:04:46.261Z,101094.32
2017-05-19T21:07:13.824Z,101094.04
2017-05-19T21:09:41.360Z,101095.92
2017-05-19T21:12:08.924Z,101099.01
2017-05-19T21:14:36.440Z,101096.47
2017-05-19T21:17:04.287Z,101090.66
2017-05-19T21:19:31.838Z,101083.41
2017-05-19T21:21:59.404Z,101087.31
2017-05-19T21:24:26.981Z,101088.80
2017-05-19T21:26:54.520Z,101090.67
2017-05-19T21:29:22.091Z,101095.38
2017-05-19T21:31:49.627Z,101096.61
2017-05-19T21:34:17.279Z,101094.98
2017-05-19T21:36:44.844Z,101086.11
2017-05-19T21:39:12.368Z,101090.39
2017-05-19T21:41:39.925Z,101095.92
2017-05-19T21:44:07.487Z,101098.61
2017-05-19T21:46:35.324Z,101103.45
2017-05-19T21:49:02.916Z,101100.38
2017-05-19T21:51:30.461Z,101098.20
2017-05-19T21:53:58.057Z,101105.72
2017-05-19T21:56:25.609Z,101110.06
2017-05-19T21:58:53.164Z,101119.45
2017-05-19T22:01:20.709Z,101117.58
2017-05-19T22:03:48.279Z,101103.85
2017-05-19T22:06:15.888Z,101098.62
2017-05-19T22:08:43.743Z,101104.67
2017-05-19T22:11:11.277Z,101115.41
2017-05-19T22:13:38.808Z,101109.75
2017-05-19T22:16:06.656Z,101116.05
2017-05-19T22:18:34.181Z,101117.02
2017-05-19T22:21:01.727Z,101121.59
2017-05-19T22:23:29.310Z,101115.00
2017-05-19T22:25:56.864Z,101124.92
2017-05-19T22:28:24.431Z,101123.33
2017-05-19T22:30:51.986Z,101135.02
2017-05-19T22:33:19.562Z,101136.38
2017-05-19T22:35:47.111Z,101136.64
2017-05-19T22:38:14.920Z,101130.33
2017-05-19T22:40:42.459Z,101138.00
2017-05-19T22:43:10.007Z,101142.54
2017-05-19T22:45:37.591Z,101134.88
2017-05-19T22:48:05.116Z,101143.38
2017-05-19T22:50:32.664Z,101146.06
2017-05-19T22:53:00.196Z,101154.55
2017-05-19T22:55:28.028Z,101151.45
2017-05-19T22:57:55.568Z,101151.83
2017-05-19T23:00:23.099Z,101147.00
2017-05-19T23:02:50.663Z,101157.62
2017-05-19T23:05:18.196Z,101161.91
2017-05-19T23:07:45.753Z,101160.83
2017-05-19T23:10:13.403Z,101152.63
2017-05-19T23:12:41.014Z,101151.81
2017-05-19T23:15:08.588Z,101155.98
2017-05-19T23:17:36.140Z,101159.75
2017-05-19T23:20:03.712Z,101160.55
2017-05-19T23:22:31.264Z,101158.22
2017-05-19T23:24:58.782Z,101158.64
2017-05-19T23:27:26.355Z,101159.17
2017-05-19T23:29:53.896Z,101160.53
2017-05-19T23:32:21.453Z,101156.64
2017-05-19T23:34:48.975Z,101156.89
2017-05-19T23:37:16.563Z,101165.05
2017-05-19T23:39:44.079Z,101166.63
2017-05-19T23:42:11.600Z,101177.44
2017-05-19T23:44:39.167Z,101169.05
2017-05-19T23:47:06.755Z,101178.33
2017-05-19T23:49:34.295Z,101176.51
2017-05-19T23:52:01.820Z,101181.71
2017-05-19T23:54:29.473Z,101183.73
2017-05-19T23:56:57.007Z,101187.41
2017-05-19T23:59:24.588Z,101197.43
